Time;durP1;ratioP1;P1;durP2;ratioP2;P2;SDS_P1;SDS_P2;PMS_P1;PMS_P2;Temp;Humidity;BMP_temperature;BMP_pressure;BME280_temperature;BME280_humidity;BME280_pressure;Samples;Min_cycle;Max_cycle;Signal;HPM_P1;HPM_P2
2022/03/17 00:00:54;;;;;;;4.27;3.97;;;17.50;51.50;18.60;101248.00;;;;5048001;28;20191;-47
2022/03/17 00:03:20;;;;;;;4.90;4.00;;;17.50;51.50;18.60;101241.00;;;;5047577;28;20694;-45
2022/03/17 00:05:46;;;;;;;4.20;3.90;;;17.50;51.60;18.60;101240.00;;;;5047287;28;20180;-45
2022/03/17 00:08:11;;;;;;;4.20;3.90;;;17.50;51.60;18.60;101263.00;;;;5047437;28;20229;-48
2022/03/17 00:10:37;;;;;;;4.27;3.97;;;17.40;51.50;18.60;101252.00;;;;5047349;28;20200;-46
2022/03/17 00:13:03;;;;;;;4.30;4.00;;;17.40;51.50;18.60;101250.00;;;;5047403;28;20699;-47
2022/03/17 00:15:29;;;;;;;4.23;3.93;;;17.40;51.50;18.60;101248.00;;;;5047628;28;20183;-45
2022/03/17 00:17:54;;;;;;;4.47;4.07;;;17.40;51.60;18.60;101255.00;;;;5046456;28;20201;-44
2022/03/17 00:20:23;;;;;;;4.37;4.07;;;17.40;51.60;18.60;101233.00;;;;5047393;28;20180;-44
2022/03/17 00:22:49;;;;;;;4.43;4.13;;;17.40;51.60;18.60;101256.00;;;;5046514;28;20263;-44
2022/03/17 00:25:14;;;;;;;4.07;3.77;;;17.40;51.60;18.60;101246.00;;;;5046929;28;20186;-46
2022/03/17 00:27:40;;;;;;;4.30;4.00;;;17.40;51.60;18.60;101253.00;;;;5045518;28;20709;-46
2022/03/17 00:30:07;;;;;;;4.57;4.20;;;17.30;51.60;18.60;101255.00;;;;5047069;28;20175;-46
2022/03/17 00:32:32;;;;;;;5.10;4.10;;;17.30;51.70;18.50;101265.00;;;;5045774;28;20175;-46
2022/03/17 00:37:42;;;;;;;4.70;4.30;;;17.30;51.70;18.50;101254.00;;;;5047036;28;20205;-47
2022/03/17 00:40:08;;;;;;;4.17;3.87;;;17.30;51.70;18.50;101258.00;;;;5046329;28;20210;-45
2022/03/17 00:42:34;;;;;;;4.07;3.77;;;17.30;51.70;18.50;101273.00;;;;5046946;28;20196;-46
2022/03/17 00:45:00;;;;;;;4.30;4.00;;;17.30;51.70;18.50;101261.00;;;;5047067;28;20326;-45
2022/03/17 00:47:26;;;;;;;4.57;4.17;;;17.30;51.70;18.50;101258.00;;;;5046361;28;20256;-46
2022/03/17 00:49:51;;;;;;;4.23;3.93;;;17.20;51.70;18.50;101259.00;;;;5047043;28;20524;-46
2022/03/17 00:52:20;;;;;;;4.20;3.90;;;17.20;51.70;18.50;101254.00;;;;5048306;28;20199;-47
2022/03/17 00:54:45;;;;;;;4.30;4.00;;;17.30;51.70;18.50;101265.00;;;;5047578;28;20175;-47
2022/03/17 00:57:12;;;;;;;4.00;3.70;;;17.20;51.60;18.40;101264.00;;;;5046748;28;20683;-45
2022/03/17 00:59:38;;;;;;;4.20;3.90;;;17.20;51.70;18.50;101227.00;;;;5045573;28;20257;-46
2022/03/17 01:02:04;;;;;;;4.37;4.07;;;17.20;51.70;18.50;101264.00;;;;5046639;28;20495;-46
2022/03/17 01:04:30;;;;;;;4.17;3.87;;;17.20;51.70;18.50;101252.00;;;;5047119;28;20620;-46
2022/03/17 01:06:56;;;;;;;4.30;4.00;;;17.30;51.70;18.40;101254.00;;;;5046157;28;20298;-46
2022/03/17 01:09:21;;;;;;;4.43;4.13;;;17.20;51.70;18.50;101259.00;;;;5045231;28;20194;-45
2022/03/17 01:11:47;;;;;;;5.00;4.60;;;17.20;51.70;18.40;101260.00;;;;5046848;28;20182;-46
2022/03/17 01:14:13;;;;;;;4.10;3.80;;;17.20;51.70;18.40;101272.00;;;;5046320;28;20171;-46
2022/03/17 01:16:40;;;;;;;4.27;3.97;;;17.20;51.70;18.40;101257.00;;;;5045783;28;20252;-46
2022/03/17 01:19:06;;;;;;;4.10;3.80;;;17.20;51.70;18.40;101261.00;;;;5046378;28;20800;-45
2022/03/17 01:21:32;;;;;;;4.47;4.17;;;17.10;51.70;18.40;101256.00;;;;5045922;28;20170;-46
2022/03/17 01:23:57;;;;;;;4.40;4.10;;;17.20;51.70;18.40;101256.00;;;;5045847;28;20647;-45
2022/03/17 01:26:23;;;;;;;4.33;4.03;;;17.10;51.60;18.00;101248.00;;;;5045499;28;20255;-46
2022/03/17 01:28:49;;;;;;;4.47;4.07;;;17.10;51.70;18.40;101250.00;;;;5045158;28;20187;-46
2022/03/17 01:31:14;;;;;;;4.23;3.93;;;17.10;51.70;18.40;101228.00;;;;5045834;28;20722;-45
2022/03/17 01:33:40;;;;;;;4.40;4.10;;;17.10;51.70;18.40;101250.00;;;;5045913;28;20184;-46
2022/03/17 01:36:06;;;;;;;4.10;3.80;;;17.10;52.00;18.40;101214.00;;;;5045564;28;20265;-46
2022/03/17 01:38:31;;;;;;;4.27;3.97;;;17.10;52.20;18.40;101186.00;;;;5045025;28;20176;-45
2022/03/17 01:40:57;;;;;;;4.40;4.10;;;17.20;51.90;18.40;101259.00;;;;5044244;28;20242;-45
2022/03/17 01:43:23;;;;;;;4.27;3.97;;;17.10;51.90;18.30;101245.00;;;;5045644;28;20209;-46
2022/03/17 01:45:52;;;;;;;4.17;3.87;;;17.10;51.90;18.30;101245.00;;;;5045500;28;20212;-45
2022/03/17 01:48:19;;;;;;;4.30;4.00;;;17.10;52.00;18.30;101246.00;;;;5045845;28;20191;-45
2022/03/17 01:50:45;;;;;;;4.20;3.90;;;17.10;52.00;18.30;101249.00;;;;5041658;28;20168;-46
2022/03/17 01:53:11;;;;;;;4.10;3.80;;;17.10;52.00;18.30;101246.00;;;;5045606;28;20170;-44
2022/03/17 01:55:37;;;;;;;4.13;3.83;;;17.10;51.90;18.30;101238.00;;;;5046125;28;20178;-44
2022/03/17 01:58:02;;;;;;;4.40;4.10;;;17.10;52.00;18.30;101235.00;;;;5044344;28;20190;-45
2022/03/17 02:00:28;;;;;;;4.30;4.00;;;17.00;51.80;18.30;101190.00;;;;5045396;28;20204;-44
2022/03/17 02:02:54;;;;;;;4.33;4.03;;;17.00;51.90;18.30;101225.00;;;;5045229;28;20348;-45
2022/03/17 02:05:20;;;;;;;4.37;4.07;;;17.00;51.90;18.30;101229.00;;;;5045431;28;20185;-46
2022/03/17 02:07:51;;;;;;;4.10;3.80;;;17.00;52.00;18.30;101236.00;;;;5045034;28;20207;-46
2022/03/17 02:10:17;;;;;;;4.50;4.20;;;17.00;51.90;18.30;101236.00;;;;5045321;28;20217;-46
2022/03/17 02:15:27;;;;;;;4.00;3.70;;;17.00;51.90;18.30;101246.00;;;;5045027;28;20166;-45
2022/03/17 02:17:53;;;;;;;4.43;4.13;;;17.00;52.00;18.30;101241.00;;;;5045371;28;20203;-45
2022/03/17 02:20:20;;;;;;;4.50;4.20;;;17.00;52.00;18.30;101234.00;;;;5045198;28;20181;-48
2022/03/17 02:22:49;;;;;;;4.30;4.00;;;17.00;52.00;18.20;101239.00;;;;5044107;28;20618;-46
2022/03/17 02:25:34;;;;;;;4.50;4.20;;;17.00;52.00;18.20;101246.00;;;;5045060;28;20171;-45
2022/03/17 02:28:02;;;;;;;4.50;4.13;;;17.00;51.90;18.20;101241.00;;;;5044607;28;20206;-47
2022/03/17 02:30:27;;;;;;;4.50;4.20;;;17.00;52.10;18.20;101229.00;;;;5045195;28;20193;-46
2022/03/17 02:33:07;;;;;;;4.40;4.10;;;17.00;52.10;18.20;101228.00;;;;5044854;28;20175;-46
2022/03/17 02:35:37;;;;;;;4.30;4.00;;;17.00;52.10;18.20;101233.00;;;;5045160;28;20195;-45
2022/03/17 02:38:03;;;;;;;4.40;4.10;;;17.00;52.10;18.20;101231.00;;;;5045158;28;20198;-46
2022/03/17 02:40:30;;;;;;;4.77;4.37;;;17.00;52.10;18.20;101231.00;;;;5046682;28;20178;-47
2022/03/17 02:42:57;;;;;;;4.30;4.00;;;17.00;52.10;18.20;101227.00;;;;5049030;28;20838;-47
2022/03/17 02:45:22;;;;;;;4.07;3.77;;;17.00;52.10;18.20;101214.00;;;;5048964;28;20646;-47
2022/03/17 02:47:48;;;;;;;4.20;3.80;;;17.00;52.10;18.10;101238.00;;;;5048636;28;20198;-45
2022/03/17 02:50:14;;;;;;;4.03;3.73;;;17.00;52.10;18.10;101221.00;;;;5049097;28;20262;-47
2022/03/17 02:52:40;;;;;;;4.13;3.83;;;17.00;52.10;18.10;101237.00;;;;5049625;28;20654;-44
2022/03/17 02:55:06;;;;;;;4.40;4.10;;;16.90;52.00;18.10;101229.00;;;;5049232;28;20171;-45
2022/03/17 02:57:32;;;;;;;4.40;4.10;;;16.90;52.00;18.10;101232.00;;;;5048794;28;20226;-45
2022/03/17 02:59:58;;;;;;;4.20;3.90;;;16.90;52.00;18.10;101172.00;;;;5048354;28;20583;-45
2022/03/17 03:02:23;;;;;;;4.50;4.20;;;16.90;52.00;18.10;101239.00;;;;5048619;28;20188;-44
2022/03/17 03:04:49;;;;;;;4.30;4.00;;;17.00;52.10;18.10;101250.00;;;;5048514;28;20174;-46
2022/03/17 03:07:15;;;;;;;4.47;4.17;;;16.90;52.10;18.10;101244.00;;;;5048130;28;20224;-45
2022/03/17 03:09:40;;;;;;;4.57;4.27;;;16.90;52.00;18.10;101255.00;;;;5047184;28;20187;-45
2022/03/17 03:12:07;;;;;;;4.53;4.23;;;16.90;52.10;18.10;101252.00;;;;5048348;28;20178;-45
2022/03/17 03:14:33;;;;;;;4.30;4.00;;;16.90;52.00;18.10;101252.00;;;;5048507;28;20185;-46
2022/03/17 03:16:58;;;;;;;4.77;4.47;;;16.90;52.10;18.10;101260.00;;;;5048210;28;20435;-46
2022/03/17 03:19:24;;;;;;;4.30;4.00;;;16.90;52.10;18.10;101250.00;;;;5048437;28;20178;-44
2022/03/17 03:21:50;;;;;;;4.40;4.00;;;16.90;52.10;18.10;101250.00;;;;5048012;28;20178;-45
2022/03/17 03:24:16;;;;;;;4.13;3.83;;;16.90;52.10;18.10;101246.00;;;;5048373;28;20178;-46
2022/03/17 03:26:42;;;;;;;4.70;4.40;;;16.80;51.90;18.10;101254.00;;;;5048121;28;20560;-47
2022/03/17 03:29:27;;;;;;;4.33;4.03;;;16.90;52.10;18.10;101263.00;;;;5048275;28;20237;-44
2022/03/17 03:31:55;;;;;;;4.50;4.20;;;16.90;52.10;18.10;101257.00;;;;5047942;28;20281;-45
2022/03/17 03:34:20;;;;;;;4.30;4.00;;;16.80;52.20;18.10;101263.00;;;;5048609;28;20247;-44
2022/03/17 03:39:31;;;;;;;4.50;4.20;;;16.80;52.10;18.00;101257.00;;;;5047689;28;20173;-49
2022/03/17 03:41:57;;;;;;;4.33;4.03;;;16.80;52.20;18.00;101257.00;;;;5047790;28;20204;-45
2022/03/17 03:44:23;;;;;;;4.57;4.27;;;16.80;52.20;18.00;101261.00;;;;5047768;28;20326;-46
2022/03/17 03:46:48;;;;;;;4.10;3.80;;;16.80;52.30;18.00;101268.00;;;;5047603;28;20212;-44
2022/03/17 03:49:14;;;;;;;4.70;4.40;;;16.80;52.20;18.00;101269.00;;;;5047696;28;20560;-45
2022/03/17 03:51:40;;;;;;;4.57;4.23;;;16.90;52.30;18.00;101279.00;;;;5045243;28;20180;-45
2022/03/17 03:54:16;;;;;;;4.40;4.10;;;16.80;52.30;18.00;101281.00;;;;5046315;28;20171;-45
2022/03/17 03:56:53;;;;;;;4.47;4.17;;;16.80;52.30;18.00;101290.00;;;;5047565;28;20238;-45
2022/03/17 03:59:22;;;;;;;4.33;4.03;;;16.80;52.30;18.00;101298.00;;;;5048024;28;20180;-45
2022/03/17 04:02:09;;;;;;;5.07;4.67;;;16.80;52.30;18.00;101306.00;;;;5047348;28;20233;-45
2022/03/17 04:04:36;;;;;;;4.70;4.10;;;16.80;52.20;18.00;101308.00;;;;5047745;28;20209;-45
2022/03/17 04:07:03;;;;;;;4.77;4.33;;;16.80;52.10;18.00;101316.00;;;;5047248;28;20214;-45
2022/03/17 04:09:34;;;;;;;4.93;4.53;;;16.80;52.10;17.80;101313.00;;;;5049325;28;20236;-46
2022/03/17 04:12:00;;;;;;;4.60;4.30;;;16.80;52.00;18.00;101321.00;;;;5049589;28;20217;-46
2022/03/17 04:14:26;;;;;;;6.07;4.50;;;16.80;51.90;18.00;101321.00;;;;5047862;28;20518;-47
2022/03/17 04:16:52;;;;;;;4.77;4.37;;;16.80;52.00;18.00;101336.00;;;;5047932;28;20194;-45
2022/03/17 04:19:18;;;;;;;4.73;4.33;;;16.80;51.90;18.00;101262.00;;;;5048133;28;20186;-44
2022/03/17 04:21:45;;;;;;;4.83;4.43;;;16.70;51.90;18.00;101327.00;;;;5047886;28;20180;-45
2022/03/17 04:24:10;;;;;;;4.80;4.30;;;16.70;51.90;18.00;101337.00;;;;5046089;28;20174;-46
2022/03/17 04:26:36;;;;;;;4.57;4.20;;;16.70;51.90;18.00;101333.00;;;;5047311;28;20221;-48
2022/03/17 04:29:02;;;;;;;5.33;4.70;;;16.70;51.90;18.00;101341.00;;;;5047057;28;20209;-45
2022/03/17 04:31:29;;;;;;;4.70;4.30;;;16.70;52.20;18.00;101352.00;;;;5046558;28;20207;-47
2022/03/17 04:33:54;;;;;;;4.83;4.47;;;16.70;52.30;17.90;101343.00;;;;5047361;28;20261;-45
2022/03/17 04:36:20;;;;;;;4.80;4.40;;;16.80;52.30;17.90;101367.00;;;;5047022;28;20281;-46
2022/03/17 04:38:46;;;;;;;4.90;4.50;;;16.80;52.20;18.00;101360.00;;;;5047133;28;20266;-45
2022/03/17 04:41:11;;;;;;;5.67;5.17;;;16.80;52.10;18.00;101367.00;;;;5046814;28;20213;-46
2022/03/17 04:43:37;;;;;;;5.97;4.63;;;16.70;52.00;18.00;101375.00;;;;5047113;28;20460;-46
2022/03/17 04:46:03;;;;;;;5.60;4.70;;;16.70;52.00;18.00;101380.00;;;;5045670;28;20710;-46
2022/03/17 04:48:29;;;;;;;5.23;4.73;;;16.70;52.00;18.00;101383.00;;;;5046925;28;20198;-47
2022/03/17 04:50:55;;;;;;;5.70;5.20;;;16.70;52.00;18.00;101385.00;;;;5045373;28;20623;-45
2022/03/17 04:53:27;;;;;;;5.57;4.80;;;16.70;51.90;18.00;101397.00;;;;5047123;28;20181;-46
2022/03/17 04:56:00;;;;;;;5.97;4.93;;;16.60;51.90;18.00;101397.00;;;;5046610;28;20155;-47
2022/03/17 04:58:25;;;;;;;5.87;5.37;;;16.70;51.90;18.00;101404.00;;;;5046715;28;20170;-47
2022/03/17 05:00:53;;;;;;;5.70;5.13;;;16.60;51.90;17.90;101412.00;;;;5042598;28;20186;-47
2022/03/17 05:03:19;;;;;;;5.83;5.33;;;16.60;52.00;17.90;101413.00;;;;5046332;28;20201;-46
2022/03/17 05:05:46;;;;;;;5.50;5.10;;;16.60;52.00;17.90;101424.00;;;;5046148;28;20435;-46
2022/03/17 05:08:12;;;;;;;5.83;5.30;;;16.60;51.90;17.90;101427.00;;;;5046041;28;20674;-46
2022/03/17 05:10:38;;;;;;;5.90;5.40;;;16.60;51.90;17.90;101428.00;;;;5045597;28;20265;-47
2022/03/17 05:13:08;;;;;;;5.50;5.10;;;16.60;51.90;17.90;101427.00;;;;5046295;28;20213;-47
2022/03/17 05:15:35;;;;;;;6.43;5.83;;;16.60;51.90;17.90;101440.00;;;;5046147;28;20178;-47
2022/03/17 05:18:01;;;;;;;6.23;5.73;;;16.60;52.10;17.90;101443.00;;;;5045274;28;20252;-47
2022/03/17 05:20:27;;;;;;;6.00;5.50;;;16.60;51.90;17.90;101442.00;;;;5045734;28;20536;-47
2022/03/17 05:22:52;;;;;;;6.43;5.30;;;16.60;51.90;17.90;101449.00;;;;5045943;28;20170;-46
2022/03/17 05:25:19;;;;;;;6.20;5.60;;;16.60;52.10;17.90;101447.00;;;;5046151;28;20170;-47
2022/03/17 05:27:45;;;;;;;5.50;5.00;;;16.60;52.10;17.90;101464.00;;;;5044831;28;20203;-46
2022/03/17 05:30:13;;;;;;;5.93;5.33;;;16.60;52.20;17.90;101459.00;;;;5045626;28;20178;-48
2022/03/17 05:32:42;;;;;;;5.60;5.10;;;16.60;52.10;17.90;101466.00;;;;5044624;28;20701;-46
2022/03/17 05:35:09;;;;;;;5.73;5.17;;;16.60;52.10;17.90;101465.00;;;;5045540;28;20746;-47
2022/03/17 05:37:35;;;;;;;5.57;5.07;;;16.60;52.00;17.90;101470.00;;;;5045037;28;20573;-47
2022/03/17 05:40:02;;;;;;;5.97;5.27;;;16.60;52.00;17.80;101482.00;;;;5044601;28;20178;-48
2022/03/17 05:42:28;;;;;;;5.70;5.07;;;16.60;51.90;17.80;101477.00;;;;5044055;28;20277;-47
2022/03/17 05:44:54;;;;;;;5.30;4.90;;;16.50;51.90;17.80;101492.00;;;;5045463;28;20658;-48
2022/03/17 05:47:20;;;;;;;5.43;5.03;;;16.50;51.90;17.80;101488.00;;;;5044766;28;20237;-48
2022/03/17 05:49:47;;;;;;;5.07;4.67;;;16.60;51.90;17.80;101494.00;;;;5045343;28;20166;-48
2022/03/17 05:52:13;;;;;;;5.20;4.80;;;16.50;51.80;17.80;101498.00;;;;5044900;28;20179;-47
2022/03/17 05:54:39;;;;;;;5.30;4.90;;;16.50;51.70;17.80;101494.00;;;;5044742;28;20677;-47
2022/03/17 05:57:05;;;;;;;5.40;5.00;;;16.50;51.80;17.80;101517.00;;;;5045111;28;20194;-47
2022/03/17 05:59:31;;;;;;;5.53;5.10;;;16.50;51.80;17.80;101507.00;;;;5044842;28;20170;-47
2022/03/17 06:01:57;;;;;;;5.03;4.73;;;16.50;51.80;17.80;101530.00;;;;5045263;28;20790;-47
2022/03/17 06:04:22;;;;;;;4.97;4.57;;;16.50;51.80;17.80;101533.00;;;;5045276;28;20444;-47
2022/03/17 06:06:48;;;;;;;5.43;5.03;;;16.50;51.90;17.80;101559.00;;;;5044277;28;20332;-47
2022/03/17 06:09:14;;;;;;;5.07;4.77;;;16.50;51.80;17.80;101556.00;;;;5044673;28;20268;-48
2022/03/17 06:11:41;;;;;;;5.40;5.00;;;16.50;51.70;17.70;101571.00;;;;5044558;28;20174;-47
2022/03/17 06:14:06;;;;;;;5.37;4.93;;;16.50;51.80;17.70;101574.00;;;;5044646;28;20631;-47
2022/03/17 06:16:33;;;;;;;5.17;4.77;;;16.50;51.80;17.70;101578.00;;;;5044199;28;20203;-47
2022/03/17 06:18:58;;;;;;;5.40;5.00;;;16.40;51.70;17.70;101582.00;;;;5045204;28;20649;-48
2022/03/17 06:21:24;;;;;;;5.33;4.93;;;16.50;51.80;17.70;101561.00;;;;5043570;28;20221;-47
2022/03/17 06:23:50;;;;;;;5.10;4.70;;;16.50;51.70;17.70;101596.00;;;;5045256;28;20190;-48
2022/03/17 06:26:16;;;;;;;5.57;5.17;;;16.40;51.70;17.70;101604.00;;;;5044225;28;20660;-46
2022/03/17 06:28:41;;;;;;;5.30;4.90;;;16.40;51.70;17.70;101596.00;;;;5044587;28;20170;-47
2022/03/17 06:31:07;;;;;;;4.93;4.60;;;16.40;51.70;17.70;101602.00;;;;5044556;28;20174;-48
2022/03/17 06:33:33;;;;;;;5.17;4.77;;;16.40;51.70;17.70;101615.00;;;;5044897;28;20179;-47
2022/03/17 06:35:59;;;;;;;5.30;4.90;;;16.40;51.70;17.70;101605.00;;;;5044134;28;20301;-47
2022/03/17 06:38:25;;;;;;;5.00;4.60;;;16.40;51.70;17.70;101604.00;;;;5044733;28;20197;-45
2022/03/17 06:40:51;;;;;;;4.90;4.60;;;16.40;51.70;17.70;101618.00;;;;5044532;28;20177;-47
2022/03/17 06:43:17;;;;;;;4.97;4.67;;;16.40;51.60;17.70;101629.00;;;;5044716;28;20178;-45
2022/03/17 06:45:44;;;;;;;5.17;4.77;;;16.40;51.60;17.70;101640.00;;;;5044561;28;20228;-47
2022/03/17 06:48:10;;;;;;;5.00;4.60;;;16.40;51.70;17.70;101644.00;;;;5044114;28;20238;-46
2022/03/17 06:50:35;;;;;;;5.13;4.77;;;16.40;51.60;17.70;101660.00;;;;5043315;28;20217;-45
2022/03/17 06:53:01;;;;;;;5.07;4.67;;;16.40;51.70;17.60;101664.00;;;;5044800;28;20194;-48
2022/03/17 06:55:27;;;;;;;5.43;5.03;;;16.40;51.70;17.70;101669.00;;;;5044737;28;20201;-47
2022/03/17 06:57:52;;;;;;;5.20;4.80;;;16.40;51.70;17.70;101683.00;;;;5044395;28;20198;-46
2022/03/17 07:00:19;;;;;;;4.83;4.53;;;16.40;51.70;17.70;101683.00;;;;5044078;28;20182;-47
2022/03/17 07:02:45;;;;;;;4.70;4.40;;;16.40;51.70;17.60;101699.00;;;;5044645;28;20174;-47
2022/03/17 07:05:10;;;;;;;5.07;4.67;;;16.40;51.70;17.70;101680.00;;;;5045007;28;20185;-47
2022/03/17 07:07:36;;;;;;;5.07;4.73;;;16.30;51.60;17.60;101700.00;;;;5044180;28;20213;-47
2022/03/17 07:10:03;;;;;;;4.90;4.60;;;16.30;51.70;17.60;101704.00;;;;5044401;28;20261;-46
2022/03/17 07:12:28;;;;;;;4.70;4.40;;;16.30;51.70;17.60;101699.00;;;;5043161;28;20592;-48
2022/03/17 07:14:54;;;;;;;4.83;4.43;;;16.40;51.70;17.60;101722.00;;;;5044215;28;20610;-48
2022/03/17 07:17:20;;;;;;;4.77;4.47;;;16.30;51.70;17.60;101727.00;;;;5044275;28;20206;-47
2022/03/17 07:22:28;;;;;;;4.90;4.50;;;16.30;51.70;17.60;101745.00;;;;5046936;28;20166;-47
2022/03/17 07:24:53;;;;;;;4.57;4.27;;;16.40;51.70;17.40;101751.00;;;;5044464;28;20249;-46
2022/03/17 07:27:21;;;;;;;4.73;4.33;;;16.30;51.60;17.60;101754.00;;;;5048252;28;20258;-48
2022/03/17 07:29:47;;;;;;;4.30;4.00;;;16.30;51.70;17.60;101760.00;;;;5048704;28;20187;-45
2022/03/17 07:32:14;;;;;;;4.77;4.43;;;16.30;51.70;17.60;101765.00;;;;5049719;28;20635;-46
2022/03/17 07:34:39;;;;;;;4.40;4.10;;;16.30;51.70;17.50;101773.00;;;;5048913;28;20684;-46
2022/03/17 07:37:05;;;;;;;4.50;4.20;;;16.30;51.70;17.50;101772.00;;;;5047961;28;20194;-47
2022/03/17 07:39:31;;;;;;;4.20;3.90;;;16.30;51.70;17.50;101791.00;;;;5047470;28;20197;-48
2022/03/17 07:41:56;;;;;;;4.47;4.17;;;16.30;51.60;17.50;101792.00;;;;5047954;28;20239;-47
2022/03/17 07:44:22;;;;;;;4.27;3.97;;;16.30;51.60;17.50;101796.00;;;;5048353;28;20586;-47
2022/03/17 07:46:48;;;;;;;4.30;4.00;;;16.30;51.60;17.50;101794.00;;;;5048146;28;20237;-46
2022/03/17 07:49:14;;;;;;;3.90;3.60;;;16.30;51.50;17.50;101809.00;;;;5047745;28;20615;-46
2022/03/17 07:51:40;;;;;;;3.80;3.50;;;16.20;51.60;17.50;101810.00;;;;5048021;28;20179;-47
2022/03/17 07:54:07;;;;;;;4.10;3.80;;;16.20;51.60;17.50;101804.00;;;;5047435;28;20670;-45
2022/03/17 07:56:33;;;;;;;4.00;3.70;;;16.20;51.60;17.50;101817.00;;;;5047553;28;20194;-45
2022/03/17 07:58:59;;;;;;;4.13;3.83;;;16.20;51.60;17.50;101815.00;;;;5047500;28;20228;-45
2022/03/17 08:01:25;;;;;;;4.40;4.10;;;16.20;51.60;17.50;101823.00;;;;5046415;28;20202;-47
2022/03/17 08:03:53;;;;;;;3.67;3.37;;;16.20;51.60;17.50;101835.00;;;;5047515;28;20212;-47
2022/03/17 08:06:19;;;;;;;3.80;3.50;;;16.20;51.60;17.40;101841.00;;;;5045546;28;20291;-45
2022/03/17 08:08:46;;;;;;;4.00;3.70;;;16.20;51.60;17.40;101778.00;;;;5045811;28;20651;-46
2022/03/17 08:11:12;;;;;;;3.80;3.50;;;16.20;51.50;17.40;101858.00;;;;5049469;28;20162;-47
2022/03/17 08:13:38;;;;;;;3.93;3.60;;;16.20;51.50;17.40;101844.00;;;;5049017;28;20179;-47
2022/03/17 08:16:04;;;;;;;4.03;3.73;;;16.20;51.50;17.40;101860.00;;;;5047030;28;20187;-48
2022/03/17 08:18:34;;;;;;;3.73;3.43;;;16.20;51.50;17.40;101872.00;;;;5046650;28;20541;-46
2022/03/17 08:21:00;;;;;;;3.53;3.33;;;16.20;51.60;17.40;101859.00;;;;5047295;28;20189;-46
2022/03/17 08:23:25;;;;;;;3.50;3.20;;;16.20;51.50;17.40;101872.00;;;;5047484;28;20174;-45
2022/03/17 08:25:51;;;;;;;3.73;3.50;;;16.20;51.50;17.40;101879.00;;;;5047571;28;20175;-47
2022/03/17 08:28:17;;;;;;;3.87;3.57;;;16.10;51.40;17.40;101872.00;;;;5046496;28;20225;-46
2022/03/17 08:30:46;;;;;;;3.63;3.33;;;16.10;51.50;17.40;101893.00;;;;5047333;28;20662;-44
2022/03/17 08:33:13;;;;;;;3.77;3.47;;;16.10;51.50;17.40;101886.00;;;;5047374;28;20186;-45
2022/03/17 08:35:40;;;;;;;3.63;3.40;;;16.10;51.40;17.40;101887.00;;;;5047539;28;20447;-46
2022/03/17 08:38:05;;;;;;;3.50;3.20;;;16.10;51.40;17.40;101904.00;;;;5046157;28;20186;-46
2022/03/17 08:40:31;;;;;;;3.83;3.53;;;16.10;51.50;17.40;101906.00;;;;5046546;28;20182;-45
2022/03/17 08:42:57;;;;;;;3.30;3.10;;;16.10;51.40;17.40;101925.00;;;;5046912;28;20179;-44
2022/03/17 08:50:51;;;;;;;3.40;3.10;;;16.10;51.40;17.30;101929.00;;;;5046616;28;20220;-46
2022/03/17 08:53:16;;;;;;;3.30;3.10;;;16.10;51.40;17.30;101938.00;;;;5043564;28;20174;-45
2022/03/17 08:55:45;;;;;;;3.20;3.00;;;16.10;51.50;17.30;101938.00;;;;5046747;28;20178;-45
2022/03/17 08:58:10;;;;;;;4.93;3.03;;;16.10;51.60;17.30;101956.00;;;;5049463;28;20173;-46
2022/03/17 09:00:36;;;;;;;4.37;3.37;;;16.10;51.90;17.30;101960.00;;;;5046250;28;20189;-44
2022/03/17 09:03:03;;;;;;;3.40;3.10;;;16.20;52.10;17.30;101951.00;;;;5046478;28;20185;-45
2022/03/17 09:05:30;;;;;;;6.73;3.00;;;16.30;52.10;17.40;101970.00;;;;5046293;28;20174;-47
2022/03/17 09:07:56;;;;;;;3.80;2.63;;;16.50;52.00;17.40;101977.00;;;;5046145;28;20372;-48
2022/03/17 09:10:23;;;;;;;3.50;2.90;;;16.60;51.80;17.50;101979.00;;;;5045647;28;20266;-46
2022/03/17 09:12:49;;;;;;;5.10;2.70;;;16.70;52.10;17.50;101990.00;;;;5046631;28;20179;-45
2022/03/17 09:15:14;;;;;;;4.23;2.80;;;16.80;51.80;17.50;101991.00;;;;5046658;28;20201;-46
2022/03/17 09:17:43;;;;;;;3.30;3.00;;;16.80;51.70;17.60;101988.00;;;;5046234;28;20256;-46
2022/03/17 09:20:15;;;;;;;7.07;2.90;;;16.90;51.90;17.60;101985.00;;;;5045948;28;20224;-44
2022/03/17 09:22:44;;;;;;;3.43;2.57;;;16.90;52.70;17.60;101927.00;;;;5047959;28;20174;-45
2022/03/17 09:25:10;;;;;;;4.97;2.70;;;17.00;52.90;17.70;102003.00;;;;5053088;28;20238;-45
2022/03/17 09:27:36;;;;;;;4.13;2.57;;;17.00;52.70;17.70;101999.00;;;;5050377;28;20202;-44
2022/03/17 09:30:03;;;;;;;5.40;2.77;;;17.10;53.40;17.80;101996.00;;;;5044705;28;20228;-45
2022/03/17 09:32:29;;;;;;;5.80;2.60;;;17.10;52.70;17.80;102000.00;;;;5028100;28;20167;-43
2022/03/17 09:34:54;;;;;;;5.20;2.70;;;17.10;52.80;17.80;102007.00;;;;5046122;28;20171;-45
2022/03/17 09:37:20;;;;;;;2.60;2.40;;;17.20;52.80;17.90;102016.00;;;;4990678;28;20299;-45
2022/03/17 09:39:46;;;;;;;3.13;2.60;;;17.20;52.70;17.90;102020.00;;;;4974015;28;20186;-46
2022/03/17 09:42:17;;;;;;;4.73;2.63;;;17.20;52.70;17.90;102016.00;;;;4956392;28;20194;-45
2022/03/17 09:44:46;;;;;;;2.73;2.43;;;17.20;52.60;17.90;102007.00;;;;4981774;28;20232;-44
2022/03/17 09:47:12;;;;;;;3.63;2.20;;;17.30;52.60;18.00;102020.00;;;;4971903;28;20209;-45
2022/03/17 09:49:38;;;;;;;3.60;2.20;;;17.30;52.70;18.00;102017.00;;;;5043975;28;20179;-44
2022/03/17 09:52:10;;;;;;;2.27;2.10;;;17.30;52.70;18.00;102024.00;;;;5045222;28;20159;-46
2022/03/17 09:54:36;;;;;;;3.37;2.50;;;17.40;52.70;18.10;102030.00;;;;5048684;28;20173;-45
2022/03/17 09:57:02;;;;;;;3.00;2.30;;;17.40;52.70;18.10;102032.00;;;;5057721;28;20675;-44
2022/03/17 09:59:28;;;;;;;2.40;2.20;;;17.40;52.70;18.10;102038.00;;;;5046791;28;20277;-42
2022/03/17 10:01:53;;;;;;;2.30;2.10;;;17.40;52.60;18.20;102030.00;;;;5048543;28;20181;-46
2022/03/17 10:04:19;;;;;;;2.27;2.10;;;17.40;52.60;18.20;102042.00;;;;5047328;28;20178;-44
2022/03/17 10:06:47;;;;;;;3.07;1.93;;;17.50;52.90;18.20;102042.00;;;;5048061;28;20220;-44
2022/03/17 10:09:12;;;;;;;4.77;2.23;;;17.50;52.80;18.20;102042.00;;;;5047383;28;20646;-45
2022/03/17 10:11:39;;;;;;;2.73;2.07;;;17.50;52.60;18.20;102049.00;;;;5047839;28;20177;-44
2022/03/17 10:14:05;;;;;;;2.50;2.30;;;17.60;52.60;18.20;102053.00;;;;5048585;28;20182;-45
2022/03/17 10:16:31;;;;;;;2.30;2.10;;;17.60;52.60;18.30;102052.00;;;;5049319;28;20572;-45
2022/03/17 10:19:02;;;;;;;2.10;2.00;;;17.60;52.60;18.30;102068.00;;;;5049285;28;20198;-46
2022/03/17 10:21:28;;;;;;;4.13;2.20;;;17.70;52.80;18.30;102066.00;;;;5046954;28;20182;-45
2022/03/17 10:24:01;;;;;;;2.30;2.00;;;17.70;52.70;18.30;102076.00;;;;5048033;28;20592;-45
2022/03/17 10:26:57;;;;;;;3.53;2.00;;;17.70;52.70;18.30;102081.00;;;;5048076;28;20210;-45
2022/03/17 10:29:25;;;;;;;2.23;1.90;;;17.70;52.70;18.30;102084.00;;;;5048078;28;20210;-44
2022/03/17 10:32:05;;;;;;;1.97;1.87;;;17.70;52.70;18.10;102089.00;;;;5057119;28;20168;-45
2022/03/17 10:34:47;;;;;;;2.47;1.90;;;17.80;52.80;18.40;102092.00;;;;5066791;28;20176;-44
2022/03/17 10:37:18;;;;;;;2.70;1.90;;;17.80;52.80;18.40;102102.00;;;;4984089;28;20205;-44
2022/03/17 10:39:54;;;;;;;3.43;2.10;;;17.80;52.40;18.40;102100.00;;;;4985238;28;20854;-46
2022/03/17 10:42:30;;;;;;;4.20;1.97;;;17.80;52.30;18.40;102102.00;;;;4960209;28;20183;-45
2022/03/17 10:45:03;;;;;;;2.20;1.87;;;17.90;52.20;18.50;102109.00;;;;4983919;28;20180;-45
2022/03/17 10:47:36;;;;;;;3.70;1.83;;;17.90;52.20;18.50;102105.00;;;;4966691;28;20212;-48
2022/03/17 10:50:15;;;;;;;2.33;1.87;;;17.90;52.00;18.50;102109.00;;;;4981925;28;20916;-46
2022/03/17 10:52:48;;;;;;;2.20;1.90;;;17.90;52.00;18.50;102112.00;;;;5032012;28;20209;-45
2022/03/17 10:55:14;;;;;;;2.13;1.90;;;17.90;51.90;18.50;102128.00;;;;5035698;28;20200;-45
2022/03/17 10:57:40;;;;;;;2.00;1.90;;;18.00;51.90;18.50;102125.00;;;;5046752;28;20245;-45
2022/03/17 11:00:09;;;;;;;2.70;1.93;;;18.00;51.90;18.60;102130.00;;;;5047812;28;20201;-45
2022/03/17 11:02:37;;;;;;;2.03;1.90;;;18.00;51.80;18.60;102129.00;;;;5051454;28;20596;-47